Time;durP1;ratioP1;P1;durP2;ratioP2;P2;SDS_P1;SDS_P2;PMS_P1;PMS_P2;Temp;Humidity;BMP_temperature;BMP_pressure;BME280_temperature;BME280_humidity;BME280_pressure;Samples;Min_cycle;Max_cycle;Signal;HPM_P1;HPM_P2
2023/10/23 00:01:45;;;;;;;6.63;3.92;;;12.00;99.90;;;;;;5069799;28;20035;-54
2023/10/23 00:04:11;;;;;;;7.65;3.78;;;12.00;99.90;;;;;;5060607;28;20033;-58
2023/10/23 00:06:36;;;;;;;10.65;4.40;;;12.00;99.90;;;;;;5069735;28;20025;-57
2023/10/23 00:09:02;;;;;;;7.95;4.10;;;11.90;99.90;;;;;;5055200;28;20128;-54
2023/10/23 00:11:31;;;;;;;9.05;4.63;;;11.90;99.90;;;;;;5065166;28;20049;-58
2023/10/23 00:13:57;;;;;;;5.20;3.75;;;11.80;99.90;;;;;;5062474;28;20103;-58
2023/10/23 00:16:23;;;;;;;11.70;4.20;;;11.90;99.90;;;;;;5070065;28;20062;-56
2023/10/23 00:18:49;;;;;;;6.55;3.30;;;11.90;99.90;;;;;;5063169;28;20028;-56
2023/10/23 00:21:16;;;;;;;4.93;3.85;;;11.90;99.90;;;;;;5065290;28;20055;-55
2023/10/23 00:23:41;;;;;;;9.75;3.78;;;11.90;99.90;;;;;;5061189;28;20398;-58
2023/10/23 00:26:07;;;;;;;6.25;4.00;;;11.80;99.90;;;;;;5063742;28;20017;-59
2023/10/23 00:28:33;;;;;;;10.75;3.78;;;11.80;99.90;;;;;;5057407;28;20538;-56
2023/10/23 00:31:00;;;;;;;8.90;3.72;;;11.80;99.90;;;;;;5058710;28;20036;-58
2023/10/23 00:33:26;;;;;;;4.63;3.53;;;11.70;99.90;;;;;;5058258;28;20050;-56
2023/10/23 00:35:52;;;;;;;4.38;3.72;;;11.60;99.90;;;;;;5050986;28;20021;-54
2023/10/23 00:38:18;;;;;;;5.63;3.35;;;11.60;99.90;;;;;;5060046;28;20023;-59
2023/10/23 00:40:43;;;;;;;8.35;4.15;;;11.60;99.90;;;;;;5054367;28;20033;-57
2023/10/23 00:43:22;;;;;;;11.88;5.32;;;11.50;99.90;;;;;;5057063;28;20033;-53
2023/10/23 00:45:57;;;;;;;13.52;4.35;;;11.50;99.90;;;;;;5051475;28;20029;-57
2023/10/23 00:48:25;;;;;;;6.55;3.53;;;11.40;99.90;;;;;;5050640;28;20021;-57
2023/10/23 00:50:53;;;;;;;14.20;3.78;;;11.40;99.90;;;;;;5054414;28;20071;-55
2023/10/23 00:53:22;;;;;;;5.78;3.83;;;11.30;99.90;;;;;;5062504;28;20020;-56
2023/10/23 00:55:50;;;;;;;4.10;3.20;;;11.30;99.90;;;;;;5048989;28;20017;-58
2023/10/23 00:58:16;;;;;;;9.95;4.13;;;11.30;99.90;;;;;;5056058;28;20044;-61
2023/10/23 01:00:44;;;;;;;9.95;3.50;;;11.30;99.90;;;;;;5050711;28;20048;-60
2023/10/23 01:03:10;;;;;;;16.38;5.05;;;11.30;99.90;;;;;;5051166;28;20040;-58
2023/10/23 01:05:36;;;;;;;6.22;3.97;;;11.30;99.90;;;;;;5052301;28;20025;-56
2023/10/23 01:08:02;;;;;;;9.57;5.00;;;11.20;99.90;;;;;;5056220;28;20497;-57
2023/10/23 01:10:28;;;;;;;11.05;4.47;;;11.20;99.90;;;;;;5056714;28;20029;-58
2023/10/23 01:12:54;;;;;;;5.03;3.20;;;11.00;99.90;;;;;;5055186;28;20111;-60
2023/10/23 01:15:20;;;;;;;8.05;3.45;;;10.90;99.90;;;;;;5050168;28;20143;-57
2023/10/23 01:17:46;;;;;;;11.50;3.85;;;10.90;99.90;;;;;;5051598;28;20029;-58
2023/10/23 01:20:14;;;;;;;5.30;3.67;;;10.80;99.90;;;;;;5051105;28;20116;-57
2023/10/23 01:22:39;;;;;;;8.80;3.25;;;10.70;99.90;;;;;;5060072;28;20028;-56
2023/10/23 01:25:15;;;;;;;7.03;3.35;;;10.60;99.90;;;;;;5057249;28;20162;-56
2023/10/23 01:27:42;;;;;;;7.90;3.60;;;10.50;99.90;;;;;;5049923;28;20040;-56
2023/10/23 01:30:09;;;;;;;7.50;3.42;;;10.40;99.90;;;;;;5058549;28;20502;-59
2023/10/23 01:32:35;;;;;;;9.02;3.67;;;10.30;99.90;;;;;;5057453;28;20048;-57
2023/10/23 01:35:01;;;;;;;9.82;3.63;;;10.30;99.90;;;;;;5050164;28;20020;-54
2023/10/23 01:37:27;;;;;;;4.63;3.28;;;10.30;99.90;;;;;;5056932;28;20054;-58
2023/10/23 01:39:52;;;;;;;12.80;7.10;;;10.20;99.90;;;;;;5061469;28;20086;-54
2023/10/23 01:42:18;;;;;;;17.60;5.32;;;10.20;99.90;;;;;;5061123;28;20556;-58
2023/10/23 01:44:43;;;;;;;17.25;8.80;;;10.20;99.90;;;;;;5053648;28;20039;-55
2023/10/23 01:47:09;;;;;;;15.18;5.93;;;10.10;99.90;;;;;;5058681;28;20478;-55
2023/10/23 01:49:35;;;;;;;8.65;4.00;;;10.10;99.90;;;;;;5064752;28;20066;-52
2023/10/23 01:52:00;;;;;;;6.13;3.00;;;10.00;99.90;;;;;;5055545;28;20021;-58
2023/10/23 01:54:26;;;;;;;4.80;3.15;;;10.00;99.90;;;;;;5050681;28;20039;-59
2023/10/23 01:56:51;;;;;;;3.67;2.75;;;10.00;99.90;;;;;;5056521;28;20032;-58
2023/10/23 01:59:17;;;;;;;9.32;3.55;;;9.90;99.90;;;;;;5066036;28;20115;-58
2023/10/23 02:01:43;;;;;;;12.00;4.85;;;9.90;99.90;;;;;;5059737;28;20076;-58
2023/10/23 02:04:08;;;;;;;8.27;4.18;;;9.80;99.90;;;;;;5063867;28;20098;-58
2023/10/23 02:06:34;;;;;;;7.95;2.92;;;9.80;99.90;;;;;;5056339;28;20431;-57
2023/10/23 02:09:00;;;;;;;4.30;2.75;;;9.80;99.90;;;;;;5051108;28;20031;-56
2023/10/23 02:11:25;;;;;;;7.55;2.83;;;9.80;99.90;;;;;;5056393;28;20033;-57
2023/10/23 02:13:51;;;;;;;11.13;3.20;;;9.80;99.90;;;;;;5055372;28;20013;-57
2023/10/23 02:16:17;;;;;;;7.90;3.05;;;9.80;99.90;;;;;;5051407;28;20048;-58
2023/10/23 02:18:43;;;;;;;8.85;3.38;;;9.80;99.90;;;;;;5052138;28;20032;-59
2023/10/23 02:21:09;;;;;;;4.40;2.78;;;9.80;99.90;;;;;;5047300;28;22023;-58
2023/10/23 02:23:35;;;;;;;16.45;3.15;;;9.60;99.90;;;;;;5059237;28;20051;-56
2023/10/23 02:26:00;;;;;;;5.88;3.25;;;9.50;99.90;;;;;;5053413;28;20094;-58
2023/10/23 02:28:27;;;;;;;8.93;3.17;;;9.40;99.90;;;;;;5054826;28;20025;-56
2023/10/23 02:30:52;;;;;;;3.95;2.75;;;9.50;99.90;;;;;;5053228;28;20087;-53
2023/10/23 02:33:18;;;;;;;5.15;2.70;;;9.40;99.90;;;;;;5055196;28;20394;-57
2023/10/23 02:35:44;;;;;;;9.02;3.10;;;9.40;99.90;;;;;;5054723;28;20051;-57
2023/10/23 02:38:09;;;;;;;3.50;2.47;;;9.30;99.90;;;;;;5050212;28;21153;-56
2023/10/23 02:40:35;;;;;;;21.13;3.20;;;9.30;99.90;;;;;;5051992;28;20052;-56
2023/10/23 02:43:00;;;;;;;11.63;4.40;;;9.40;99.90;;;;;;5055213;28;20036;-57
2023/10/23 02:45:26;;;;;;;9.32;5.50;;;9.30;99.90;;;;;;5057509;28;20031;-55
2023/10/23 02:47:53;;;;;;;12.93;4.47;;;9.30;99.90;;;;;;5051403;28;20419;-55
2023/10/23 02:50:19;;;;;;;7.15;3.85;;;9.30;99.90;;;;;;5056348;28;20056;-58
2023/10/23 02:52:45;;;;;;;10.73;3.33;;;9.40;99.90;;;;;;5055817;28;20082;-58
2023/10/23 02:55:10;;;;;;;8.68;2.88;;;9.40;99.90;;;;;;5052533;28;20032;-58
2023/10/23 02:57:36;;;;;;;9.40;2.58;;;9.40;99.90;;;;;;5059238;28;20033;-56
2023/10/23 03:00:05;;;;;;;3.83;2.72;;;9.30;99.90;;;;;;5054641;28;20062;-58
2023/10/23 03:02:30;;;;;;;7.22;2.60;;;9.30;99.90;;;;;;5051461;28;20036;-56
2023/10/23 03:04:56;;;;;;;5.43;2.50;;;9.20;99.90;;;;;;5053462;28;20033;-56
2023/10/23 03:07:21;;;;;;;7.95;3.08;;;9.20;99.90;;;;;;5050007;28;20029;-59
2023/10/23 03:09:47;;;;;;;9.05;3.50;;;9.10;99.90;;;;;;5060761;28;20021;-58
2023/10/23 03:12:12;;;;;;;6.40;3.78;;;9.10;99.90;;;;;;5049507;28;20025;-59
2023/10/23 03:14:38;;;;;;;8.60;2.95;;;9.00;99.90;;;;;;5052583;28;20025;-54
2023/10/23 03:17:03;;;;;;;10.27;2.85;;;8.90;99.90;;;;;;5053927;28;21889;-57
2023/10/23 03:19:29;;;;;;;6.15;3.50;;;8.80;99.90;;;;;;5054567;28;20406;-56
2023/10/23 03:21:55;;;;;;;8.23;3.35;;;8.80;99.90;;;;;;5054834;28;20094;-58
2023/10/23 03:24:21;;;;;;;8.77;3.20;;;8.80;99.90;;;;;;5055550;28;20111;-55
2023/10/23 03:26:47;;;;;;;3.25;2.80;;;8.90;99.90;;;;;;5054155;28;20562;-58
2023/10/23 03:29:12;;;;;;;12.80;3.35;;;8.90;99.90;;;;;;5049582;28;20021;-58
2023/10/23 03:31:38;;;;;;;4.82;3.00;;;8.90;99.90;;;;;;5048682;28;20025;-58
2023/10/23 03:34:04;;;;;;;10.68;3.38;;;8.90;99.90;;;;;;5051562;28;20090;-57
2023/10/23 03:36:29;;;;;;;9.27;3.08;;;8.90;99.90;;;;;;5052726;28;20052;-57
2023/10/23 03:38:55;;;;;;;13.02;3.78;;;8.90;99.90;;;;;;5049797;28;20036;-53
2023/10/23 03:41:20;;;;;;;8.40;4.03;;;8.70;99.90;;;;;;5054272;28;20043;-55
2023/10/23 03:43:46;;;;;;;14.30;4.50;;;8.70;99.90;;;;;;5050726;28;20032;-59
2023/10/23 03:46:11;;;;;;;16.80;3.80;;;8.60;99.90;;;;;;5059314;28;20115;-57
2023/10/23 03:48:37;;;;;;;13.18;3.83;;;8.70;99.90;;;;;;5062479;28;20024;-58
2023/10/23 03:51:03;;;;;;;8.98;3.40;;;8.60;99.90;;;;;;5058356;28;20056;-56
2023/10/23 03:53:29;;;;;;;12.18;4.57;;;8.60;99.90;;;;;;5053842;28;20024;-58
2023/10/23 03:55:55;;;;;;;13.40;4.90;;;8.50;99.90;;;;;;5054307;28;20036;-54
2023/10/23 03:58:21;;;;;;;9.77;5.45;;;8.50;99.90;;;;;;5068689;28;20037;-54
2023/10/23 04:00:54;;;;;;;11.18;4.72;;;8.50;99.90;;;;;;5059553;28;20082;-55
2023/10/23 04:03:20;;;;;;;13.88;5.13;;;8.40;99.90;;;;;;5067710;28;20031;-57
2023/10/23 04:05:45;;;;;;;13.75;5.00;;;8.40;99.90;;;;;;5055855;28;20024;-58
2023/10/23 04:08:11;;;;;;;12.90;5.00;;;8.40;99.90;;;;;;5065567;28;20112;-59
2023/10/23 04:10:36;;;;;;;9.98;4.63;;;8.50;99.90;;;;;;5059414;28;20154;-53
2023/10/23 04:13:02;;;;;;;12.77;4.80;;;8.50;99.90;;;;;;5062771;28;20029;-57
2023/10/23 04:15:28;;;;;;;12.43;4.88;;;8.40;99.90;;;;;;5061229;28;20428;-58
2023/10/23 04:17:53;;;;;;;13.02;4.75;;;8.50;99.90;;;;;;5060571;28;20158;-59
2023/10/23 04:20:19;;;;;;;17.33;5.70;;;8.40;99.90;;;;;;5057518;28;20040;-58
2023/10/23 04:22:45;;;;;;;18.15;5.00;;;8.40;99.90;;;;;;5063822;28;20040;-55
2023/10/23 04:25:10;;;;;;;10.65;4.57;;;8.40;99.90;;;;;;5055021;28;20407;-55
2023/10/23 04:27:36;;;;;;;10.60;5.38;;;8.40;99.90;;;;;;5055621;28;20037;-54
2023/10/23 04:30:06;;;;;;;12.30;4.68;;;8.40;99.90;;;;;;5050956;28;20036;-55
2023/10/23 04:32:31;;;;;;;8.93;5.32;;;8.40;99.90;;;;;;5058725;28;20031;-53
2023/10/23 04:34:57;;;;;;;10.90;4.57;;;8.50;99.90;;;;;;5057542;28;20033;-52
2023/10/23 04:37:22;;;;;;;10.68;4.63;;;8.50;99.90;;;;;;5053611;28;20104;-55
2023/10/23 04:39:48;;;;;;;15.60;4.50;;;8.40;99.90;;;;;;5053468;28;20070;-54
2023/10/23 04:42:14;;;;;;;8.88;4.00;;;8.40;99.90;;;;;;5053608;28;20028;-59
2023/10/23 04:44:39;;;;;;;9.18;4.15;;;8.50;99.90;;;;;;5055493;28;20076;-59
2023/10/23 04:47:05;;;;;;;14.40;4.80;;;8.40;99.90;;;;;;5055832;28;20107;-53
2023/10/23 04:49:31;;;;;;;8.40;4.90;;;8.30;99.90;;;;;;5056793;28;21857;-57
2023/10/23 04:51:57;;;;;;;8.65;4.13;;;8.20;99.90;;;;;;5051081;28;20032;-57
2023/10/23 04:54:22;;;;;;;9.10;4.15;;;8.20;99.90;;;;;;5064941;28;20400;-57
2023/10/23 04:56:48;;;;;;;10.15;4.35;;;8.20;99.90;;;;;;5057725;28;20033;-56
2023/10/23 04:59:13;;;;;;;10.30;4.43;;;8.10;99.90;;;;;;5060197;28;20062;-59
2023/10/23 05:01:39;;;;;;;11.65;5.07;;;8.00;99.90;;;;;;5059342;28;20029;-52
2023/10/23 05:04:05;;;;;;;16.17;4.38;;;8.00;99.90;;;;;;5052766;28;20052;-59
2023/10/23 05:06:30;;;;;;;7.90;4.93;;;8.00;99.90;;;;;;5048675;28;20028;-58
2023/10/23 05:08:56;;;;;;;14.85;4.55;;;8.10;99.90;;;;;;5054889;28;20147;-57
2023/10/23 05:11:22;;;;;;;13.48;5.28;;;8.00;99.90;;;;;;5059757;28;20036;-57
2023/10/23 05:13:47;;;;;;;12.65;5.93;;;7.90;99.90;;;;;;5054346;28;20019;-57
2023/10/23 05:16:13;;;;;;;11.80;4.57;;;7.90;99.90;;;;;;5052947;28;20399;-55
2023/10/23 05:18:39;;;;;;;12.32;5.57;;;7.90;99.90;;;;;;5047075;28;20032;-57
2023/10/23 05:21:09;;;;;;;10.98;5.35;;;8.00;99.90;;;;;;5051097;28;20036;-54
2023/10/23 05:23:36;;;;;;;17.98;5.63;;;8.00;99.90;;;;;;5057207;28;20029;-55
2023/10/23 05:26:01;;;;;;;11.10;5.10;;;7.90;99.90;;;;;;5050997;28;20478;-58
2023/10/23 05:28:27;;;;;;;23.52;6.43;;;7.80;99.90;;;;;;5055157;28;20029;-55
2023/10/23 05:30:52;;;;;;;11.30;6.18;;;7.80;99.90;;;;;;5050209;28;20103;-59
2023/10/23 05:33:19;;;;;;;10.13;6.00;;;7.80;99.90;;;;;;5057623;28;20498;-57
2023/10/23 05:35:45;;;;;;;13.50;6.13;;;7.90;99.90;;;;;;5057327;28;20025;-58
2023/10/23 05:38:11;;;;;;;15.93;5.93;;;7.90;99.90;;;;;;5066806;28;20612;-54
2023/10/23 05:40:36;;;;;;;11.63;6.35;;;7.80;99.90;;;;;;5059241;28;20029;-55
2023/10/23 05:43:02;;;;;;;13.52;6.72;;;7.70;99.90;;;;;;5062463;28;20099;-58
2023/10/23 05:45:27;;;;;;;12.82;6.78;;;7.60;99.90;;;;;;5055858;28;20556;-52
2023/10/23 05:47:53;;;;;;;12.35;5.65;;;7.60;99.90;;;;;;5063133;28;20558;-57
2023/10/23 05:50:18;;;;;;;14.05;6.10;;;7.60;99.90;;;;;;5062837;28;20035;-56
2023/10/23 05:52:44;;;;;;;11.95;5.97;;;7.50;99.90;;;;;;5061787;28;20059;-58
2023/10/23 05:55:09;;;;;;;8.85;4.70;;;7.50;99.90;;;;;;5054806;28;20053;-55
2023/10/23 05:57:35;;;;;;;11.63;5.45;;;7.50;99.90;;;;;;5060992;28;20039;-56
2023/10/23 06:00:03;;;;;;;9.52;4.80;;;7.50;99.90;;;;;;5054727;28;20056;-58
2023/10/23 06:02:30;;;;;;;10.25;5.68;;;7.50;99.90;;;;;;5059428;28;20028;-54
2023/10/23 06:04:56;;;;;;;12.35;5.47;;;7.60;99.90;;;;;;5053366;28;20060;-55
2023/10/23 06:07:21;;;;;;;8.50;4.82;;;7.60;99.90;;;;;;5074652;28;20064;-59
2023/10/23 06:09:47;;;;;;;11.98;6.22;;;7.70;99.90;;;;;;5055966;28;20070;-59
2023/10/23 06:12:14;;;;;;;12.35;5.38;;;7.70;99.90;;;;;;5059014;28;20630;-56
2023/10/23 06:14:40;;;;;;;11.82;5.03;;;7.70;99.90;;;;;;5059434;28;20021;-55
2023/10/23 06:17:06;;;;;;;7.13;4.07;;;7.60;99.90;;;;;;5061151;28;20115;-56
2023/10/23 06:19:32;;;;;;;6.32;4.63;;;7.70;99.90;;;;;;5058135;28;20040;-58
2023/10/23 06:21:57;;;;;;;9.50;4.35;;;7.70;99.90;;;;;;5064998;28;20387;-53
2023/10/23 06:24:23;;;;;;;7.18;4.45;;;7.70;99.90;;;;;;5059030;28;20028;-58
2023/10/23 06:26:49;;;;;;;8.55;4.18;;;7.60;99.90;;;;;;5056922;28;20040;-54
2023/10/23 06:29:14;;;;;;;13.32;4.30;;;7.60;99.90;;;;;;5058135;28;20027;-57
2023/10/23 06:31:40;;;;;;;11.15;4.60;;;7.60;99.90;;;;;;5058895;28;20506;-57
2023/10/23 06:34:05;;;;;;;9.35;4.30;;;7.60;99.90;;;;;;5062917;28;20028;-59
2023/10/23 06:36:31;;;;;;;13.57;4.63;;;7.70;99.90;;;;;;5057958;28;20032;-56
2023/10/23 06:38:57;;;;;;;10.70;4.43;;;7.60;99.90;;;;;;5065365;28;20028;-56
2023/10/23 06:41:22;;;;;;;10.75;4.40;;;7.60;99.90;;;;;;5061596;28;20028;-57
2023/10/23 06:43:48;;;;;;;9.35;4.40;;;7.70;99.90;;;;;;5062980;28;20508;-56
2023/10/23 06:46:14;;;;;;;10.00;5.45;;;7.80;99.90;;;;;;5057659;28;20490;-52
2023/10/23 06:48:44;;;;;;;10.02;4.90;;;7.90;99.90;;;;;;5065462;28;20116;-56
2023/10/23 06:51:10;;;;;;;7.95;4.50;;;7.90;99.90;;;;;;5059030;28;20021;-54
2023/10/23 06:53:36;;;;;;;9.88;4.15;;;7.90;99.90;;;;;;5063513;28;20107;-54
2023/10/23 06:56:02;;;;;;;13.30;5.30;;;8.00;99.90;;;;;;5060694;28;20203;-56
2023/10/23 06:58:28;;;;;;;11.25;4.68;;;8.00;99.90;;;;;;5061229;28;20029;-58
2023/10/23 07:00:53;;;;;;;13.70;4.97;;;8.10;99.90;;;;;;5055655;28;20031;-58
2023/10/23 07:03:19;;;;;;;11.43;4.93;;;8.10;99.90;;;;;;5055933;28;20025;-56
2023/10/23 07:05:45;;;;;;;11.82;5.18;;;8.10;99.90;;;;;;5051511;28;20044;-58
2023/10/23 07:08:11;;;;;;;14.30;5.47;;;8.10;99.90;;;;;;5051325;28;20105;-56
2023/10/23 07:10:38;;;;;;;16.02;5.22;;;8.20;99.90;;;;;;5051380;28;20147;-55
2023/10/23 07:13:03;;;;;;;11.00;4.35;;;8.30;99.90;;;;;;5055101;28;20029;-56
2023/10/23 07:15:33;;;;;;;7.72;4.65;;;8.30;99.90;;;;;;5058812;28;20044;-58
2023/10/23 07:17:59;;;;;;;12.80;6.28;;;8.40;99.90;;;;;;5059477;28;20017;-55
2023/10/23 07:20:25;;;;;;;15.55;6.25;;;8.50;99.90;;;;;;5056742;28;20339;-58
2023/10/23 07:22:50;;;;;;;16.60;7.75;;;8.60;99.90;;;;;;5069528;28;20054;-58
2023/10/23 07:25:16;;;;;;;15.57;7.07;;;8.70;99.90;;;;;;5070054;28;20394;-58
2023/10/23 07:27:41;;;;;;;27.42;8.77;;;8.80;99.90;;;;;;5070873;28;20444;-58
2023/10/23 07:30:07;;;;;;;19.13;9.13;;;8.90;99.90;;;;;;5063619;28;20036;-53
2023/10/23 07:32:35;;;;;;;17.80;9.55;;;9.10;99.90;;;;;;5059471;28;20658;-55
2023/10/23 07:35:03;;;;;;;29.10;10.55;;;9.20;99.90;;;;;;5059947;28;20543;-59
2023/10/23 07:37:29;;;;;;;31.10;11.25;;;9.30;99.90;;;;;;5063186;28;20028;-58
2023/10/23 07:39:56;;;;;;;22.48;11.20;;;9.40;99.90;;;;;;5059180;28;20036;-56
2023/10/23 07:42:21;;;;;;;28.73;13.13;;;9.60;99.90;;;;;;5064855;28;20033;-59
2023/10/23 07:44:47;;;;;;;32.63;14.20;;;9.60;99.90;;;;;;5069962;28;20386;-57
2023/10/23 07:47:13;;;;;;;32.47;13.65;;;9.70;99.90;;;;;;5063844;28;20054;-58
2023/10/23 07:49:38;;;;;;;37.55;15.93;;;9.80;99.90;;;;;;5057253;28;20501;-58
2023/10/23 07:52:04;;;;;;;37.50;14.70;;;9.90;99.90;;;;;;5057960;28;20025;-55
2023/10/23 07:54:31;;;;;;;28.45;13.85;;;10.00;99.90;;;;;;5074475;28;20024;-58
2023/10/23 07:56:57;;;;;;;32.45;15.27;;;10.10;99.90;;;;;;5060172;28;20108;-55
2023/10/23 07:59:23;;;;;;;41.15;16.17;;;10.10;99.90;;;;;;5064274;28;20542;-56
2023/10/23 08:01:49;;;;;;;37.05;15.30;;;10.20;99.90;;;;;;5058647;28;20620;-59
2023/10/23 08:04:15;;;;;;;42.15;16.77;;;10.30;99.90;;;;;;5061956;28;20055;-56
2023/10/23 08:06:41;;;;;;;35.58;15.60;;;10.30;99.90;;;;;;5064714;28;20024;-53
2023/10/23 08:09:07;;;;;;;31.45;15.45;;;10.40;99.90;;;;;;5075365;28;20039;-59
2023/10/23 08:11:33;;;;;;;33.33;14.98;;;10.50;99.90;;;;;;5065048;28;20029;-55
2023/10/23 08:14:00;;;;;;;31.30;15.57;;;10.60;99.90;;;;;;5076819;28;20031;-55
2023/10/23 08:16:25;;;;;;;30.63;15.82;;;10.60;99.90;;;;;;5059102;28;20024;-55
2023/10/23 08:18:51;;;;;;;39.33;15.32;;;10.60;99.90;;;;;;5071684;28;20051;-56
2023/10/23 08:21:17;;;;;;;34.55;16.80;;;10.60;99.90;;;;;;5060156;28;20040;-55
2023/10/23 08:23:44;;;;;;;38.22;15.45;;;10.50;99.90;;;;;;5073952;28;20016;-57
2023/10/23 08:26:10;;;;;;;28.20;14.68;;;10.50;99.90;;;;;;5067619;28;20028;-58
2023/10/23 08:28:36;;;;;;;36.28;15.73;;;10.60;99.90;;;;;;5062438;28;20090;-56
2023/10/23 08:31:01;;;;;;;34.13;16.10;;;10.60;99.90;;;;;;5063885;28;20052;-56
2023/10/23 08:33:27;;;;;;;31.67;15.18;;;10.60;99.90;;;;;;5060342;28;20595;-57
2023/10/23 08:35:53;;;;;;;36.65;16.23;;;10.70;99.90;;;;;;5064554;28;20034;-56
2023/10/23 08:38:18;;;;;;;31.25;14.48;;;10.70;99.90;;;;;;5064624;28;20029;-55
2023/10/23 08:40:44;;;;;;;31.40;15.13;;;10.70;99.90;;;;;;5061428;28;20043;-59
2023/10/23 08:43:10;;;;;;;36.13;16.38;;;10.70;99.90;;;;;;5066017;28;20458;-56
2023/10/23 08:45:36;;;;;;;33.00;15.43;;;10.70;99.90;;;;;;5075780;28;20028;-55
2023/10/23 08:48:01;;;;;;;33.72;15.30;;;10.80;99.90;;;;;;5068238;28;20033;-56
2023/10/23 08:50:27;;;;;;;31.73;15.70;;;10.80;99.90;;;;;;5056332;28;20121;-56
2023/10/23 08:52:58;;;;;;;34.60;16.90;;;10.90;99.90;;;;;;5064864;28;20538;-53
2023/10/23 08:55:28;;;;;;;36.53;16.38;;;10.90;99.90;;;;;;5057823;28;20044;-52
2023/10/23 08:57:54;;;;;;;37.40;15.68;;;11.00;99.90;;;;;;5059527;28;20025;-54
2023/10/23 09:00:22;;;;;;;29.33;15.98;;;10.90;99.90;;;;;;5061504;28;20104;-58
2023/10/23 09:02:49;;;;;;;31.45;14.70;;;11.00;99.90;;;;;;5051867;28;20174;-57
2023/10/23 09:05:14;;;;;;;31.60;16.23;;;11.00;99.90;;;;;;5070025;28;20035;-54
2023/10/23 09:07:40;;;;;;;37.00;15.77;;;11.10;99.90;;;;;;5067647;28;20032;-58
2023/10/23 09:10:06;;;;;;;34.83;14.82;;;11.10;99.90;;;;;;5058904;28;20021;-54
2023/10/23 09:12:34;;;;;;;32.28;14.77;;;11.10;99.90;;;;;;5059256;28;20044;-54
2023/10/23 09:15:16;;;;;;;30.08;15.25;;;11.10;99.90;;;;;;5056738;28;20025;-56
2023/10/23 09:17:43;;;;;;;34.90;14.68;;;11.20;99.90;;;;;;5053427;28;20430;-55
2023/10/23 09:20:24;;;;;;;27.63;14.52;;;11.20;99.90;;;;;;5052230;28;20055;-59
2023/10/23 09:22:54;;;;;;;26.80;14.63;;;11.30;99.90;;;;;;5061021;28;20059;-59
2023/10/23 09:25:24;;;;;;;29.58;14.48;;;11.30;99.90;;;;;;5050645;28;20218;-55
2023/10/23 09:27:50;;;;;;;32.08;13.90;;;11.40;99.90;;;;;;5052403;28;20061;-59
2023/10/23 09:30:21;;;;;;;39.17;13.88;;;11.40;99.90;;;;;;5048282;28;20029;-60
2023/10/23 09:32:56;;;;;;;31.80;13.73;;;11.40;99.90;;;;;;5049480;28;20067;-56
2023/10/23 09:35:28;;;;;;;30.58;13.93;;;11.60;99.90;;;;;;5059004;28;20035;-58
2023/10/23 09:37:55;;;;;;;26.30;14.77;;;11.60;99.90;;;;;;5061628;28;20032;-59
2023/10/23 09:40:22;;;;;;;25.75;13.02;;;11.70;99.90;;;;;;5061754;28;20628;-58
2023/10/23 09:42:49;;;;;;;27.98;13.82;;;11.60;99.90;;;;;;5066968;28;20080;-56
2023/10/23 09:45:15;;;;;;;30.65;14.90;;;11.70;99.90;;;;;;5064266;28;20063;-55
2023/10/23 09:47:41;;;;;;;35.25;14.20;;;11.80;99.90;;;;;;5071417;28;20035;-58
2023/10/23 09:50:07;;;;;;;24.65;12.88;;;12.00;99.90;;;;;;5064065;28;20398;-58
2023/10/23 09:52:34;;;;;;;29.08;13.20;;;12.00;99.90;;;;;;5056678;28;20024;-57
2023/10/23 09:55:05;;;;;;;26.23;12.88;;;12.00;99.90;;;;;;5060706;28;20526;-56
2023/10/23 09:57:39;;;;;;;25.23;12.55;;;12.00;99.90;;;;;;5060352;28;20167;-57
2023/10/23 10:00:13;;;;;;;28.58;11.90;;;12.00;99.90;;;;;;5060378;28;20036;-53
2023/10/23 10:02:40;;;;;;;20.60;11.73;;;12.00;99.90;;;;;;5066231;28;20039;-52
2023/10/23 10:05:08;;;;;;;23.30;12.45;;;12.00;99.90;;;;;;5061875;28;20652;-54
2023/10/23 10:07:59;;;;;;;20.80;10.45;;;12.10;99.90;;;;;;5061584;28;20410;-59
2023/10/23 10:10:26;;;;;;;18.48;9.85;;;12.10;99.90;;;;;;5061178;28;20013;-55
2023/10/23 10:12:54;;;;;;;23.73;10.88;;;12.10;99.90;;;;;;5057725;28;20024;-57
2023/10/23 10:15:21;;;;;;;20.25;10.80;;;12.20;99.90;;;;;;5052266;28;20021;-54
2023/10/23 10:17:49;;;;;;;20.40;10.82;;;12.20;99.90;;;;;;5056584;28;20156;-56
2023/10/23 10:20:20;;;;;;;17.73;10.77;;;12.40;99.90;;;;;;5060404;28;20055;-59
2023/10/23 10:22:48;;;;;;;22.73;10.48;;;12.50;99.90;;;;;;5062197;28;20161;-53
2023/10/23 10:25:15;;;;;;;18.65;9.75;;;12.60;99.90;;;;;;5056631;28;20090;-58
2023/10/23 10:27:41;;;;;;;18.38;9.02;;;12.70;99.90;;;;;;5061617;28;20024;-59
2023/10/23 10:30:45;;;;;;;19.70;8.57;;;12.80;99.90;;;;;;5057812;28;20037;-55
2023/10/23 10:33:31;;;;;;;9.70;7.03;;;12.90;99.90;;;;;;5067116;28;20051;-59
2023/10/23 10:36:02;;;;;;;19.02;7.20;;;13.00;99.90;;;;;;5055782;28;20483;-57
2023/10/23 10:38:32;;;;;;;11.05;6.40;;;12.90;99.90;;;;;;5064427;28;20016;-60
2023/10/23 10:41:14;;;;;;;14.07;5.60;;;13.00;99.90;;;;;;5061451;28;20027;-59
2023/10/23 10:43:39;;;;;;;18.60;6.47;;;13.10;99.90;;;;;;5061826;28;20031;-57
2023/10/23 10:46:15;;;;;;;10.65;4.13;;;13.10;99.90;;;;;;5058200;28;20406;-58
2023/10/23 10:48:49;;;;;;;11.00;5.25;;;13.30;99.90;;;;;;5054495;28;20025;-59
2023/10/23 10:51:17;;;;;;;9.20;4.68;;;13.30;99.90;;;;;;5057156;28;20033;-58
2023/10/23 10:53:45;;;;;;;9.88;4.38;;;13.20;99.90;;;;;;5059996;28;20367;-54
2023/10/23 10:56:10;;;;;;;12.00;3.67;;;13.20;99.90;;;;;;5058780;28;20396;-59
2023/10/23 10:58:38;;;;;;;7.85;3.40;;;13.20;99.90;;;;;;5061242;28;20021;-59
2023/10/23 11:01:03;;;;;;;8.25;3.10;;;13.30;99.90;;;;;;5061156;28;20033;-57
2023/10/23 11:03:34;;;;;;;17.75;3.83;;;13.50;99.90;;;;;;5056812;28;20081;-59
2023/10/23 11:06:00;;;;;;;16.05;3.00;;;13.50;99.90;;;;;;5053215;28;20094;-60
2023/10/23 11:08:27;;;;;;;20.02;2.97;;;13.60;99.90;;;;;;5061578;28;20386;-61
2023/10/23 11:10:54;;;;;;;4.90;2.40;;;13.60;99.90;;;;;;5058227;28;20411;-61
2023/10/23 11:13:20;;;;;;;6.97;2.53;;;13.60;99.90;;;;;;5061998;28;20012;-62
2023/10/23 11:15:46;;;;;;;6.53;2.38;;;13.70;99.90;;;;;;5060296;28;20063;-62
2023/10/23 11:18:12;;;;;;;9.20;2.65;;;13.60;99.90;;;;;;5052402;28;20112;-58
2023/10/23 11:20:39;;;;;;;6.57;2.70;;;13.70;99.90;;;;;;5054839;28;20230;-60
2023/10/23 11:23:05;;;;;;;7.22;2.50;;;13.70;99.90;;;;;;5051347;28;20033;-60
2023/10/23 11:25:30;;;;;;;5.40;2.20;;;13.80;99.90;;;;;;5060809;28;20567;-61
2023/10/23 11:27:56;;;;;;;7.63;2.50;;;13.80;99.90;;;;;;5056015;28;20068;-61
2023/10/23 11:30:27;;;;;;;10.05;2.03;;;13.90;99.90;;;;;;5057908;28;20063;-62
2023/10/23 11:32:53;;;;;;;5.22;2.45;;;13.90;99.90;;;;;;5057589;28;20110;-61
2023/10/23 11:35:19;;;;;;;8.82;2.30;;;13.90;99.90;;;;;;5060660;28;20044;-60
2023/10/23 11:37:44;;;;;;;7.68;3.33;;;13.90;99.90;;;;;;5057632;28;20486;-62
2023/10/23 11:40:11;;;;;;;5.47;2.38;;;13.90;99.90;;;;;;5059368;28;20065;-62
2023/10/23 11:42:48;;;;;;;10.68;2.13;;;13.90;99.90;;;;;;5058913;28;20032;-62
2023/10/23 11:45:17;;;;;;;6.53;2.60;;;13.90;99.90;;;;;;5060218;28;20017;-62
2023/10/23 11:47:43;;;;;;;7.22;2.90;;;14.00;99.90;;;;;;5058979;28;20074;-60
2023/10/23 11:50:12;;;;;;;10.30;2.50;;;14.00;99.90;;;;;;5063733;28;20040;-62
2023/10/23 11:52:44;;;;;;;8.60;2.58;;;14.00;99.90;;;;;;5060427;28;20029;-59
2023/10/23 11:55:11;;;;;;;8.77;2.30;;;14.00;99.90;;;;;;5058496;28;20506;-59
2023/10/23 11:57:41;;;;;;;5.28;3.15;;;14.00;99.90;;;;;;5062108;28;20033;-59
2023/10/23 12:00:15;;;;;;;9.00;2.40;;;14.10;99.90;;;;;;5059590;28;20028;-60
2023/10/23 12:02:42;;;;;;;5.47;2.63;;;14.10;99.90;;;;;;5061429;28;20115;-61
2023/10/23 12:05:12;;;;;;;6.72;2.35;;;14.10;99.90;;;;;;5071937;28;20536;-59
2023/10/23 12:07:42;;;;;;;4.53;1.83;;;14.10;99.90;;;;;;5063555;28;20054;-60
2023/10/23 12:10:09;;;;;;;8.50;2.30;;;14.00;99.90;;;;;;5066736;28;20474;-60
2023/10/23 12:12:37;;;;;;;5.45;1.88;;;14.00;99.90;;;;;;5071465;28;20482;-62
2023/10/23 12:15:03;;;;;;;4.30;1.88;;;14.10;99.90;;;;;;5058945;28;20019;-56
2023/10/23 12:17:29;;;;;;;8.55;1.98;;;14.10;99.90;;;;;;5064929;28;20064;-59
2023/10/23 12:19:54;;;;;;;6.32;1.98;;;14.10;99.90;;;;;;5059314;28;20559;-60
2023/10/23 12:22:20;;;;;;;7.82;1.88;;;14.20;99.90;;;;;;5069645;28;20029;-60
2023/10/23 12:24:46;;;;;;;3.47;1.63;;;14.30;99.90;;;;;;5061559;28;20422;-62
2023/10/23 12:27:11;;;;;;;10.13;2.90;;;14.40;99.90;;;;;;5059795;28;20380;-60
2023/10/23 12:29:37;;;;;;;7.35;2.20;;;14.40;99.90;;;;;;5067588;28;20090;-58
2023/10/23 12:32:04;;;;;;;5.50;1.88;;;14.50;99.90;;;;;;5064813;28;20017;-59
2023/10/23 12:34:30;;;;;;;5.75;2.20;;;14.50;99.90;;;;;;5062405;28;20050;-58
2023/10/23 12:36:56;;;;;;;8.00;2.17;;;14.50;99.90;;;;;;5064682;28;20017;-60
2023/10/23 12:39:22;;;;;;;4.03;1.77;;;14.60;99.90;;;;;;5062177;28;20608;-62
2023/10/23 12:41:47;;;;;;;3.78;1.55;;;14.70;99.90;;;;;;5063411;28;20033;-60